Terminal Aerodrome Forecast
Issued by NWS Pittsburgh, PA

Home | Current Version | Previous Version | Text Only | Print | Product List | Glossary On
Versions: 1 2 3 4 5 6 7 8 9 10 11 12 13 14 15 16 17 18 19 20 21 22 23 24 25 26 27 28 29 30 31 32 33 34 35
000
FTUS41 KPBZ 022300
TAFPIT
TAF
KPIT 022321Z 0300/0406 29008KT P6SM BKN035
     FM030700 00000KT 4SM BR SCT250
     FM031000 00000KT 2SM BR SCT250
     FM031300 23004KT P6SM SCT040=

USA.gov is the U.S. government's official web portal to all federal, state and local government web resources and services.